createdAt,value
2023-04-02T00:00:11.582Z,1.40
2023-04-02T00:02:46.784Z,0.50
2023-04-02T00:05:16.531Z,2.00
2023-04-02T00:07:44.720Z,1.63
2023-04-02T00:10:30.043Z,0.75
2023-04-02T00:13:04.212Z,0.40
2023-04-02T00:15:30.957Z,0.45
2023-04-02T00:17:57.931Z,0.60
2023-04-02T00:20:27.934Z,1.50
2023-04-02T00:22:55.090Z,0.65
2023-04-02T00:25:26.472Z,0.68
2023-04-02T00:27:55.875Z,0.35
2023-04-02T00:30:22.627Z,1.38
2023-04-02T00:32:49.319Z,0.63
2023-04-02T00:35:21.065Z,1.15
2023-04-02T00:37:50.169Z,0.95
2023-04-02T00:40:26.704Z,1.70
2023-04-02T00:42:54.106Z,0.70
2023-04-02T00:45:23.707Z,1.10
2023-04-02T00:47:50.556Z,2.25
2023-04-02T00:50:32.308Z,1.27
2023-04-02T00:53:07.790Z,0.45
2023-04-02T00:55:39.291Z,1.52
2023-04-02T00:58:19.227Z,0.85
2023-04-02T01:00:51.301Z,0.70
2023-04-02T01:03:18.021Z,0.70
2023-04-02T01:06:20.332Z,1.13
2023-04-02T01:08:49.375Z,1.27
2023-04-02T01:11:24.239Z,1.42
2023-04-02T01:14:09.370Z,1.27
2023-04-02T01:16:46.722Z,0.98
2023-04-02T01:19:18.488Z,2.40
2023-04-02T01:22:10.296Z,3.15
2023-04-02T01:24:39.650Z,2.63
2023-04-02T01:27:26.611Z,2.70
2023-04-02T01:29:59.802Z,1.65
2023-04-02T01:32:30.363Z,1.58
2023-04-02T01:34:57.260Z,2.17
2023-04-02T01:37:23.701Z,1.13
2023-04-02T01:39:53.360Z,1.33
2023-04-02T01:42:29.490Z,1.48
2023-04-02T01:45:08.117Z,1.02
2023-04-02T01:47:34.879Z,1.70
2023-04-02T01:50:11.307Z,0.73
2023-04-02T01:52:41.603Z,1.02
2023-04-02T01:55:10.239Z,1.05
2023-04-02T01:57:42.756Z,1.00
2023-04-02T02:00:15.757Z,4.25
2023-04-02T02:02:47.957Z,1.33
2023-04-02T02:05:19.197Z,1.42
2023-04-02T02:07:49.294Z,2.88
2023-04-02T02:10:25.804Z,0.90
2023-04-02T02:13:00.601Z,1.10
2023-04-02T02:15:29.749Z,2.10
2023-04-02T02:17:59.305Z,1.30
2023-04-02T02:20:29.144Z,2.05
2023-04-02T02:22:56.133Z,1.17
2023-04-02T02:25:27.480Z,1.08
2023-04-02T02:28:16.671Z,1.38
2023-04-02T02:30:45.701Z,2.55
2023-04-02T02:33:16.496Z,1.60
2023-04-02T02:36:06.131Z,2.50
2023-04-02T02:41:18.290Z,0.95
2023-04-02T02:43:52.173Z,1.33
2023-04-02T02:46:20.370Z,1.48
2023-04-02T02:48:47.413Z,1.50
2023-04-02T02:51:19.632Z,1.77
2023-04-02T02:53:54.358Z,1.52
2023-04-02T02:56:22.848Z,1.33
2023-04-02T02:58:51.936Z,1.95
2023-04-02T03:01:22.926Z,1.25
2023-04-02T03:03:54.891Z,2.50
2023-04-02T03:06:28.215Z,1.40
2023-04-02T03:09:00.868Z,1.08
2023-04-02T03:11:41.389Z,1.33
2023-04-02T03:14:20.760Z,1.33
2023-04-02T03:16:53.177Z,1.05
2023-04-02T03:19:35.283Z,1.00
2023-04-02T03:22:08.669Z,2.45
2023-04-02T03:24:45.158Z,1.70
2023-04-02T03:27:17.957Z,1.08
2023-04-02T03:30:01.637Z,2.15
2023-04-02T03:32:32.596Z,1.13
2023-04-02T03:35:18.046Z,1.65
2023-04-02T03:37:51.166Z,1.95
2023-04-02T03:40:19.986Z,1.55
2023-04-02T03:42:53.097Z,0.60
2023-04-02T03:45:23.042Z,1.85
2023-04-02T03:48:05.492Z,2.05
2023-04-02T03:50:38.694Z,0.93
2023-04-02T03:53:09.692Z,1.33
2023-04-02T03:55:39.585Z,2.70
2023-04-02T03:58:24.051Z,1.42
2023-04-02T04:01:12.399Z,1.42
2023-04-02T04:03:43.924Z,2.63
2023-04-02T04:06:31.161Z,1.20
2023-04-02T04:09:01.004Z,0.90
2023-04-02T04:11:32.360Z,1.40
2023-04-02T04:14:05.574Z,1.33
2023-04-02T04:16:46.303Z,1.05
2023-04-02T04:19:21.777Z,1.55
2023-04-02T04:21:48.324Z,2.38
2023-04-02T04:24:23.165Z,0.70
2023-04-02T04:27:09.540Z,1.70
2023-04-02T04:29:47.695Z,1.08
2023-04-02T04:32:33.649Z,1.30
2023-04-02T04:35:17.437Z,1.35
2023-04-02T04:37:53.747Z,1.15
2023-04-02T04:40:26.448Z,1.63
2023-04-02T04:42:59.861Z,2.00
2023-04-02T04:45:47.031Z,2.10
2023-04-02T04:48:26.761Z,3.88
2023-04-02T04:51:07.386Z,2.08
2023-04-02T04:53:40.974Z,3.80
2023-04-02T04:56:18.567Z,2.85
2023-04-02T04:58:52.219Z,3.25
2023-04-02T05:01:27.560Z,3.60
2023-04-02T05:03:59.412Z,4.90
2023-04-02T05:06:47.314Z,4.47
2023-04-02T05:09:24.341Z,2.47
2023-04-02T05:12:10.425Z,2.65
2023-04-02T05:14:56.238Z,2.55
2023-04-02T05:17:38.543Z,1.85
2023-04-02T05:20:24.725Z,2.13
2023-04-02T05:23:00.186Z,2.33
2023-04-02T05:25:30.358Z,3.63
2023-04-02T05:28:06.312Z,2.28
2023-04-02T05:30:33.125Z,3.15
2023-04-02T05:33:19.854Z,2.42
2023-04-02T05:35:51.661Z,1.95
2023-04-02T05:38:23.677Z,2.90
2023-04-02T05:41:15.754Z,2.38
2023-04-02T05:43:46.047Z,3.92
2023-04-02T05:46:19.536Z,3.10
2023-04-02T05:48:51.105Z,4.05
2023-04-02T05:51:24.255Z,1.77
2023-04-02T05:53:58.724Z,2.53
2023-04-02T05:56:28.194Z,2.70
2023-04-02T05:59:00.813Z,1.83
2023-04-02T06:01:40.991Z,1.88
2023-04-02T06:04:23.475Z,2.20
2023-04-02T06:06:58.992Z,1.83
2023-04-02T06:09:29.043Z,1.60
2023-04-02T06:12:12.280Z,2.75
2023-04-02T06:14:42.026Z,1.95
2023-04-02T06:17:13.840Z,1.90
2023-04-02T06:19:43.059Z,3.30
2023-04-02T06:22:18.628Z,4.45
2023-04-02T06:24:49.610Z,4.85
2023-04-02T06:27:22.739Z,6.22
2023-04-02T06:29:52.781Z,4.10
2023-04-02T06:32:23.066Z,2.50
2023-04-02T06:34:49.933Z,2.15
2023-04-02T06:37:22.282Z,3.45
2023-04-02T06:39:53.048Z,4.70
2023-04-02T06:42:27.049Z,4.20
2023-04-02T06:45:02.500Z,3.38
2023-04-02T06:50:46.215Z,2.55
2023-04-02T06:53:25.329Z,3.90
2023-04-02T06:55:56.676Z,3.80
2023-04-02T06:58:27.807Z,3.13
2023-04-02T07:00:54.420Z,2.35
2023-04-02T07:03:29.952Z,1.67
2023-04-02T07:06:02.081Z,1.48
2023-04-02T07:08:31.182Z,2.47
2023-04-02T07:10:58.452Z,2.63
2023-04-02T07:13:30.453Z,2.45
2023-04-02T07:15:57.317Z,1.90
2023-04-02T07:18:28.324Z,3.28
2023-04-02T07:21:00.330Z,1.27
2023-04-02T07:23:27.475Z,1.45
2023-04-02T07:25:57.491Z,1.63
2023-04-02T07:28:26.963Z,1.48
2023-04-02T07:30:53.752Z,2.28
2023-04-02T07:33:21.577Z,2.08
2023-04-02T07:35:51.530Z,2.50
2023-04-02T07:38:18.042Z,2.78
2023-04-02T07:43:13.176Z,1.00
2023-04-02T07:45:39.717Z,2.92
2023-04-02T07:48:07.156Z,0.80
2023-04-02T07:50:34.065Z,1.02
2023-04-02T07:53:00.506Z,1.17
2023-04-02T07:57:54.571Z,1.63
2023-04-02T08:00:24.301Z,1.00
2023-04-02T08:02:51.466Z,1.17
2023-04-02T08:05:18.079Z,1.20
2023-04-02T08:07:44.827Z,1.52
2023-04-02T08:10:13.561Z,0.85
2023-04-02T08:12:40.508Z,0.68
2023-04-02T08:15:12.498Z,0.65
2023-04-02T08:17:43.065Z,0.60
2023-04-02T08:20:22.773Z,1.50
2023-04-02T08:22:49.937Z,0.47
2023-04-02T08:25:19.291Z,0.75
2023-04-02T08:27:51.347Z,0.50
2023-04-02T08:30:19.716Z,0.52
2023-04-02T08:32:46.393Z,1.98
2023-04-02T08:35:18.568Z,1.00
2023-04-02T08:37:47.568Z,1.08
2023-04-02T08:40:26.394Z,1.65
2023-04-02T08:43:03.723Z,0.60
2023-04-02T08:45:37.995Z,0.57
2023-04-02T08:48:05.483Z,0.57
2023-04-02T08:50:33.704Z,0.40
2023-04-02T08:53:02.427Z,0.40
2023-04-02T08:55:42.855Z,0.55
2023-04-02T08:58:09.413Z,0.40
2023-04-02T09:03:10.951Z,1.00
2023-04-02T09:05:42.160Z,0.65
2023-04-02T09:08:31.007Z,0.40
2023-04-02T09:11:18.615Z,0.65
2023-04-02T09:13:48.781Z,0.30
2023-04-02T09:16:21.341Z,0.57
2023-04-02T09:18:51.522Z,0.68
2023-04-02T09:21:20.925Z,0.40
2023-04-02T09:23:47.610Z,0.50
2023-04-02T09:26:22.317Z,0.45
2023-04-02T09:28:50.435Z,1.17
2023-04-02T09:31:19.326Z,0.32
2023-04-02T09:33:47.282Z,1.80
2023-04-02T09:36:19.558Z,1.58
2023-04-02T09:39:01.535Z,0.55
2023-04-02T09:41:30.952Z,0.77
2023-04-02T09:44:18.851Z,0.57
2023-04-02T09:46:49.415Z,0.98
2023-04-02T09:49:17.885Z,0.68
2023-04-02T09:51:55.071Z,1.17
2023-04-02T09:54:23.939Z,1.73
2023-04-02T09:57:03.706Z,0.70
2023-04-02T09:59:34.984Z,0.52
2023-04-02T10:02:04.602Z,0.50
2023-04-02T10:04:37.109Z,0.70
2023-04-02T10:07:04.445Z,1.33
2023-04-02T10:09:37.354Z,0.43
2023-04-02T10:12:13.544Z,0.50
2023-04-02T10:14:44.998Z,0.77
2023-04-02T10:17:20.110Z,0.68
2023-04-02T10:19:58.142Z,0.65
2023-04-02T10:22:27.777Z,0.38
2023-04-02T10:24:54.302Z,0.50
2023-04-02T10:27:31.252Z,0.47
2023-04-02T10:30:12.561Z,0.50
2023-04-02T10:33:00.377Z,0.40
2023-04-02T10:35:26.946Z,0.90
2023-04-02T10:37:56.633Z,1.55
2023-04-02T10:40:29.688Z,0.90
2023-04-02T10:43:17.314Z,1.20
2023-04-02T10:45:49.349Z,1.02
2023-04-02T10:48:24.932Z,0.85
2023-04-02T10:50:54.016Z,0.85
2023-04-02T10:53:30.428Z,1.05
2023-04-02T10:56:08.867Z,1.80
2023-04-02T10:58:38.461Z,1.80
2023-04-02T11:01:09.309Z,2.42
2023-04-02T11:03:44.855Z,1.40
2023-04-02T11:06:20.445Z,1.08
2023-04-02T11:08:53.843Z,0.88
2023-04-02T11:11:21.310Z,0.85
2023-04-02T11:14:14.275Z,2.55
2023-04-02T11:16:44.313Z,1.35
2023-04-02T11:19:19.445Z,1.40
2023-04-02T11:21:58.506Z,0.55
2023-04-02T11:24:34.379Z,0.50
2023-04-02T11:27:08.161Z,2.22
2023-04-02T11:29:36.462Z,0.82
2023-04-02T11:32:14.321Z,0.57
2023-04-02T11:34:40.884Z,1.13
2023-04-02T11:37:10.675Z,1.00
2023-04-02T11:39:46.497Z,0.70
2023-04-02T11:42:20.717Z,1.95
2023-04-02T11:44:51.903Z,0.80
2023-04-02T11:47:23.216Z,0.80
2023-04-02T11:49:56.081Z,1.70
2023-04-02T11:52:25.810Z,1.02
2023-04-02T11:55:00.245Z,1.90
2023-04-02T11:57:55.375Z,1.17
2023-04-02T12:00:33.132Z,1.65
2023-04-02T12:03:06.910Z,2.63
2023-04-02T12:05:43.100Z,3.72
2023-04-02T12:08:19.119Z,2.60
2023-04-02T12:10:54.111Z,1.13
2023-04-02T12:13:44.320Z,0.80
2023-04-02T12:16:12.168Z,1.33
2023-04-02T12:18:47.699Z,1.27
2023-04-02T12:21:21.288Z,1.65
2023-04-02T12:23:52.021Z,1.00
2023-04-02T12:26:30.114Z,0.80
2023-04-02T12:29:15.109Z,1.25
2023-04-02T12:31:46.405Z,1.45
2023-04-02T12:34:17.101Z,2.28
2023-04-02T12:36:53.940Z,2.17
2023-04-02T12:39:24.665Z,1.90
2023-04-02T12:41:55.838Z,2.15
2023-04-02T12:44:27.068Z,0.65
2023-04-02T12:46:53.829Z,0.73
2023-04-02T12:49:30.488Z,0.40
2023-04-02T12:51:59.542Z,0.60
2023-04-02T12:54:29.008Z,0.68
2023-04-02T12:57:15.561Z,1.02
2023-04-02T12:59:42.788Z,1.05
2023-04-02T13:02:22.630Z,0.65
2023-04-02T13:04:50.537Z,0.70
2023-04-02T13:07:21.901Z,1.05
2023-04-02T13:09:56.646Z,0.75
2023-04-02T13:12:40.074Z,0.98
2023-04-02T13:15:08.054Z,1.00
2023-04-02T13:17:40.822Z,3.13
2023-04-02T13:20:26.103Z,1.80
2023-04-02T13:22:52.635Z,1.88
2023-04-02T13:25:19.651Z,1.58
2023-04-02T13:27:48.722Z,1.38
2023-04-02T13:30:21.716Z,1.23
2023-04-02T13:32:50.378Z,1.20
2023-04-02T13:35:17.114Z,1.00
2023-04-02T13:37:43.902Z,1.02
2023-04-02T13:40:14.764Z,2.22
2023-04-02T13:42:43.875Z,1.35
2023-04-02T13:45:19.213Z,2.03
2023-04-02T13:47:46.010Z,2.00
2023-04-02T13:50:16.425Z,2.17
2023-04-02T13:52:42.974Z,2.50
2023-04-02T13:55:10.561Z,0.63
2023-04-02T13:57:39.536Z,1.88
2023-04-02T14:00:09.185Z,16.38
2023-04-02T14:02:43.484Z,1.55
2023-04-02T14:05:15.088Z,3.42
2023-04-02T14:08:04.675Z,1.17
2023-04-02T14:10:57.608Z,2.22
2023-04-02T14:13:42.451Z,2.30
2023-04-02T14:16:18.118Z,1.20
2023-04-02T14:18:58.236Z,0.88
2023-04-02T14:21:42.518Z,0.75
2023-04-02T14:24:19.325Z,1.05
2023-04-02T14:26:45.803Z,1.50
2023-04-02T14:29:20.576Z,1.70
2023-04-02T14:34:30.488Z,0.93
2023-04-02T14:37:13.558Z,1.20
2023-04-02T14:39:44.901Z,1.15
2023-04-02T14:42:16.523Z,1.90
2023-04-02T14:44:48.986Z,1.70
2023-04-02T14:47:28.240Z,2.08
2023-04-02T14:49:58.786Z,0.98
2023-04-02T14:52:31.228Z,1.20
2023-04-02T14:55:03.200Z,1.13
2023-04-02T14:57:29.729Z,0.88
2023-04-02T15:00:01.958Z,1.13
2023-04-02T15:02:46.288Z,2.03
2023-04-02T15:05:21.128Z,1.13
2023-04-02T15:07:57.649Z,0.68
2023-04-02T15:10:24.178Z,2.03
2023-04-02T15:12:54.365Z,1.48
2023-04-02T15:15:40.494Z,2.50
2023-04-02T15:18:14.966Z,1.80
2023-04-02T15:21:00.536Z,1.10
2023-04-02T15:24:01.767Z,2.03
2023-04-02T15:26:30.490Z,0.95
2023-04-02T15:29:06.290Z,1.45
2023-04-02T15:31:34.769Z,1.20
2023-04-02T15:34:06.622Z,1.25
2023-04-02T15:36:39.182Z,0.88
2023-04-02T15:39:24.452Z,1.83
2023-04-02T15:42:07.388Z,0.63
2023-04-02T15:44:39.980Z,0.88
2023-04-02T15:47:16.178Z,1.33
2023-04-02T15:50:02.814Z,1.38
2023-04-02T15:52:54.928Z,1.27
2023-04-02T15:55:39.660Z,1.73
2023-04-02T15:58:17.774Z,3.03
2023-04-02T16:00:58.656Z,1.05
2023-04-02T16:03:25.184Z,1.30
2023-04-02T16:06:16.785Z,0.88
2023-04-02T16:09:02.185Z,2.40
2023-04-02T16:11:31.313Z,1.02
2023-04-02T16:14:15.843Z,1.90
2023-04-02T16:16:42.399Z,2.10
2023-04-02T16:19:20.970Z,2.55
2023-04-02T16:21:54.299Z,1.80
2023-04-02T16:24:23.552Z,0.90
2023-04-02T16:26:55.884Z,1.98
2023-04-02T16:29:47.114Z,1.15
2023-04-02T16:32:28.149Z,1.35
2023-04-02T16:35:24.835Z,1.50
2023-04-02T16:37:57.278Z,13.57
2023-04-02T16:40:29.778Z,17.25
2023-04-02T16:42:58.799Z,17.52
2023-04-02T16:45:34.654Z,10.07
2023-04-02T16:48:09.516Z,4.43
2023-04-02T16:50:38.787Z,1.90
2023-04-02T16:53:30.867Z,4.25
2023-04-02T16:56:02.579Z,2.95
2023-04-02T16:58:29.038Z,4.07
2023-04-02T17:06:05.326Z,2.85
2023-04-02T17:09:07.315Z,1.50
2023-04-02T17:11:49.082Z,2.92
2023-04-02T17:14:21.105Z,4.55
2023-04-02T17:16:52.436Z,3.00
2023-04-02T17:19:24.552Z,3.42
2023-04-02T17:21:54.924Z,2.83
2023-04-02T17:24:25.682Z,3.00
2023-04-02T17:26:57.979Z,2.65
2023-04-02T17:29:47.046Z,4.40
2023-04-02T17:32:44.411Z,4.82
2023-04-02T17:35:32.219Z,6.05
2023-04-02T17:38:04.649Z,6.18
2023-04-02T17:40:49.018Z,6.93
2023-04-02T17:43:39.235Z,3.03
2023-04-02T17:46:20.781Z,2.15
2023-04-02T17:48:55.238Z,3.72
2023-04-02T17:51:30.510Z,4.60
2023-04-02T17:53:59.141Z,6.55
2023-04-02T17:59:14.296Z,4.45
2023-04-02T18:01:53.476Z,5.28
2023-04-02T18:04:42.714Z,3.45
2023-04-02T18:07:11.806Z,3.22
2023-04-02T18:09:38.298Z,4.43
2023-04-02T18:14:34.152Z,3.25
2023-04-02T18:17:18.208Z,4.15
2023-04-02T18:19:49.960Z,3.05
2023-04-02T18:22:19.494Z,1.73
2023-04-02T18:25:00.796Z,1.35
2023-04-02T18:27:30.837Z,1.48
2023-04-02T18:30:18.541Z,1.83
2023-04-02T18:32:48.235Z,1.77
2023-04-02T18:35:35.995Z,1.83
2023-04-02T18:38:05.631Z,3.10
2023-04-02T18:40:49.850Z,4.65
2023-04-02T18:43:24.989Z,2.70
2023-04-02T18:46:05.174Z,3.50
2023-04-02T18:49:00.456Z,2.00
2023-04-02T18:51:32.479Z,1.80
2023-04-02T18:54:24.934Z,1.70
2023-04-02T18:56:51.456Z,2.75
2023-04-02T18:59:39.409Z,1.50
2023-04-02T19:04:33.030Z,1.50
2023-04-02T19:07:07.109Z,3.70
2023-04-02T19:09:41.964Z,2.60
2023-04-02T19:12:19.795Z,3.55
2023-04-02T19:14:52.020Z,2.80
2023-04-02T19:17:28.294Z,2.28
2023-04-02T19:20:13.731Z,1.70
2023-04-02T19:25:07.869Z,2.63
2023-04-02T19:27:43.366Z,3.35
2023-04-02T19:30:14.925Z,3.20
2023-04-02T19:32:46.665Z,2.58
2023-04-02T19:35:29.471Z,3.40
2023-04-02T19:38:03.439Z,3.00
2023-04-02T19:40:51.638Z,2.25
2023-04-02T19:43:21.871Z,3.22
2023-04-02T19:45:53.207Z,2.92
2023-04-02T19:48:24.573Z,2.50
2023-04-02T19:50:51.108Z,3.05
2023-04-02T19:53:17.645Z,3.08
2023-04-02T19:55:51.924Z,2.63
2023-04-02T19:58:23.700Z,2.60
2023-04-02T20:00:52.558Z,2.33
2023-04-02T20:03:24.767Z,3.33
2023-04-02T20:05:53.328Z,2.22
2023-04-02T20:08:20.287Z,2.35
2023-04-02T20:10:46.790Z,2.63
2023-04-02T20:15:41.826Z,2.03
2023-04-02T20:18:10.906Z,2.72
2023-04-02T20:20:47.192Z,3.47
2023-04-02T20:23:15.568Z,2.83
2023-04-02T20:25:46.266Z,2.53
2023-04-02T20:28:13.157Z,2.85
2023-04-02T20:30:42.022Z,3.88
2023-04-02T20:33:09.111Z,2.65
2023-04-02T20:35:37.857Z,2.70
2023-04-02T20:38:08.201Z,2.88
2023-04-02T20:40:35.336Z,2.50
2023-04-02T20:43:04.484Z,2.88
2023-04-02T20:45:31.221Z,2.78
2023-04-02T20:47:57.794Z,3.17
2023-04-02T20:50:29.033Z,2.90
2023-04-02T20:52:57.648Z,2.58
2023-04-02T20:55:29.205Z,3.47
2023-04-02T20:57:55.833Z,2.53
2023-04-02T21:00:24.600Z,2.95
2023-04-02T21:05:19.940Z,2.55
2023-04-02T21:10:17.312Z,2.60
2023-04-02T21:12:45.949Z,2.65
2023-04-02T21:15:13.320Z,2.85
2023-04-02T21:17:44.961Z,3.58
2023-04-02T21:20:13.847Z,2.85
2023-04-02T21:25:11.266Z,3.38
2023-04-02T21:30:09.146Z,18.48
2023-04-02T21:32:38.226Z,13.40
2023-04-02T21:35:07.565Z,6.18
2023-04-02T21:37:33.982Z,3.20
2023-04-02T21:40:00.571Z,6.40
2023-04-02T21:42:29.445Z,4.15
2023-04-02T21:44:56.021Z,2.08
2023-04-02T21:47:23.493Z,1.48
2023-04-02T21:49:52.460Z,2.00
2023-04-02T21:54:52.363Z,2.30
2023-04-02T21:57:21.366Z,2.22
2023-04-02T21:59:47.874Z,2.85
2023-04-02T22:02:16.660Z,2.72
2023-04-02T22:04:51.906Z,2.42
2023-04-02T22:07:18.381Z,2.42
2023-04-02T22:12:13.722Z,2.20
2023-04-02T22:14:42.822Z,1.63
2023-04-02T22:19:35.688Z,0.63
2023-04-02T22:22:02.432Z,0.85
2023-04-02T22:24:31.383Z,0.82
2023-04-02T22:27:03.253Z,0.82
2023-04-02T22:29:32.265Z,0.52
2023-04-02T22:32:01.225Z,0.85
2023-04-02T22:34:27.728Z,3.30
2023-04-02T22:36:58.508Z,2.17
2023-04-02T22:39:27.358Z,1.40
2023-04-02T22:41:56.246Z,1.30
2023-04-02T22:44:25.172Z,1.48
2023-04-02T22:46:51.655Z,1.75
2023-04-02T22:51:53.309Z,1.92
2023-04-02T22:54:22.315Z,1.17
2023-04-02T22:56:48.864Z,0.55
2023-04-02T22:59:15.497Z,1.17
2023-04-02T23:01:47.132Z,0.47
2023-04-02T23:04:13.709Z,1.05
2023-04-02T23:09:06.796Z,1.92
2023-04-02T23:11:35.808Z,1.85
2023-04-02T23:14:04.702Z,1.33
2023-04-02T23:16:33.645Z,1.15
2023-04-02T23:19:00.127Z,0.88
2023-04-02T23:21:26.663Z,0.88
2023-04-02T23:23:55.340Z,0.95
2023-04-02T23:28:48.785Z,1.13
2023-04-02T23:31:19.189Z,0.90
2023-04-02T23:33:48.488Z,1.10
2023-04-02T23:36:18.493Z,1.02
2023-04-02T23:38:47.536Z,1.27
2023-04-02T23:41:14.896Z,0.95
2023-04-02T23:43:44.278Z,1.15
2023-04-02T23:46:15.727Z,1.67
2023-04-02T23:48:45.993Z,1.25
2023-04-02T23:51:12.728Z,1.40
2023-04-02T23:53:39.331Z,1.00
2023-04-02T23:56:10.939Z,1.77
2023-04-02T23:58:37.454Z,1.15
